sensor_id;sensor_type;location;lat;lon;timestamp;pressure;altitude;pressure_sealevel;temperature;humidity
15529;BME280;7866;52.280;9.500;2023-05-27T00:01:38;101705.38;;;10.35;75.07
15529;BME280;7866;52.280;9.500;2023-05-27T00:06:40;101707.97;;;10.46;74.63
15529;BME280;7866;52.280;9.500;2023-05-27T00:11:43;101706.81;;;10.39;74.32
15529;BME280;7866;52.280;9.500;2023-05-27T00:16:45;101716.78;;;10.27;74.96
15529;BME280;7866;52.280;9.500;2023-05-27T00:21:47;101705.44;;;10.24;74.91
15529;BME280;7866;52.280;9.500;2023-05-27T00:26:50;101702.97;;;10.11;75.72
15529;BME280;7866;52.280;9.500;2023-05-27T00:31:51;101709.13;;;10.02;75.86
15529;BME280;7866;52.280;9.500;2023-05-27T00:36:53;101705.72;;;10.00;76.67
15529;BME280;7866;52.280;9.500;2023-05-27T00:41:56;101706.19;;;10.05;76.32
15529;BME280;7866;52.280;9.500;2023-05-27T00:46:58;101705.59;;;10.01;75.74
15529;BME280;7866;52.280;9.500;2023-05-27T00:52:00;101694.97;;;9.90;76.39
15529;BME280;7866;52.280;9.500;2023-05-27T00:57:03;101693.75;;;9.94;76.17
15529;BME280;7866;52.280;9.500;2023-05-27T01:02:06;101691.13;;;9.83;76.83
15529;BME280;7866;52.280;9.500;2023-05-27T01:07:10;101697.47;;;9.82;76.75
15529;BME280;7866;52.280;9.500;2023-05-27T01:12:23;101696.72;;;9.80;76.86
15529;BME280;7866;52.280;9.500;2023-05-27T01:17:31;101695.09;;;9.68;76.86
15529;BME280;7866;52.280;9.500;2023-05-27T01:22:34;101690.75;;;9.67;77.65
15529;BME280;7866;52.280;9.500;2023-05-27T01:27:36;101685.91;;;9.60;77.89
15529;BME280;7866;52.280;9.500;2023-05-27T01:32:44;101684.22;;;9.59;77.20
15529;BME280;7866;52.280;9.500;2023-05-27T01:37:51;101679.06;;;9.68;77.33
15529;BME280;7866;52.280;9.500;2023-05-27T01:42:53;101673.69;;;9.68;77.33
15529;BME280;7866;52.280;9.500;2023-05-27T01:47:57;101669.19;;;9.68;77.41
15529;BME280;7866;52.280;9.500;2023-05-27T01:53:00;101667.91;;;9.62;77.56
15529;BME280;7866;52.280;9.500;2023-05-27T01:58:03;101667.50;;;9.67;77.96
15529;BME280;7866;52.280;9.500;2023-05-27T02:03:05;101661.22;;;9.57;78.05
15529;BME280;7866;52.280;9.500;2023-05-27T02:08:08;101664.69;;;9.48;77.62
15529;BME280;7866;52.280;9.500;2023-05-27T02:13:10;101656.81;;;9.46;77.90
15529;BME280;7866;52.280;9.500;2023-05-27T02:18:11;101652.41;;;9.45;78.15
15529;BME280;7866;52.280;9.500;2023-05-27T02:23:14;101644.41;;;9.45;77.95
15529;BME280;7866;52.280;9.500;2023-05-27T02:28:16;101649.19;;;9.42;78.28
15529;BME280;7866;52.280;9.500;2023-05-27T02:33:18;101652.16;;;9.27;78.20
15529;BME280;7866;52.280;9.500;2023-05-27T02:38:21;101655.53;;;9.29;79.21
15529;BME280;7866;52.280;9.500;2023-05-27T02:43:22;101655.69;;;9.28;79.29
15529;BME280;7866;52.280;9.500;2023-05-27T02:48:24;101654.19;;;9.35;79.23
15529;BME280;7866;52.280;9.500;2023-05-27T02:53:27;101655.22;;;9.23;79.09
15529;BME280;7866;52.280;9.500;2023-05-27T02:58:28;101649.63;;;9.26;79.25
15529;BME280;7866;52.280;9.500;2023-05-27T03:03:30;101657.50;;;9.27;79.44
15529;BME280;7866;52.280;9.500;2023-05-27T03:08:33;101660.56;;;9.23;78.66
15529;BME280;7866;52.280;9.500;2023-05-27T03:13:35;101664.56;;;9.17;78.95
15529;BME280;7866;52.280;9.500;2023-05-27T03:18:36;101668.00;;;9.19;79.11
15529;BME280;7866;52.280;9.500;2023-05-27T03:23:39;101659.19;;;9.28;78.79
15529;BME280;7866;52.280;9.500;2023-05-27T03:28:41;101652.53;;;9.23;78.90
15529;BME280;7866;52.280;9.500;2023-05-27T03:33:42;101649.09;;;9.32;78.85
15529;BME280;7866;52.280;9.500;2023-05-27T03:38:45;101638.78;;;9.27;78.46
15529;BME280;7866;52.280;9.500;2023-05-27T03:43:47;101642.16;;;9.29;79.48
15529;BME280;7866;52.280;9.500;2023-05-27T03:48:48;101648.84;;;9.35;79.27
15529;BME280;7866;52.280;9.500;2023-05-27T03:53:51;101641.63;;;9.47;78.63
15529;BME280;7866;52.280;9.500;2023-05-27T03:58:53;101646.44;;;9.53;78.62
15529;BME280;7866;52.280;9.500;2023-05-27T04:03:54;101648.94;;;9.66;78.75
15529;BME280;7866;52.280;9.500;2023-05-27T04:08:57;101641.88;;;9.85;77.84
15529;BME280;7866;52.280;9.500;2023-05-27T04:13:59;101635.63;;;9.85;78.18
15529;BME280;7866;52.280;9.500;2023-05-27T04:19:01;101625.19;;;10.03;77.68
15529;BME280;7866;52.280;9.500;2023-05-27T04:24:04;101621.38;;;10.26;77.50
15529;BME280;7866;52.280;9.500;2023-05-27T04:29:06;101615.75;;;10.39;77.35
15529;BME280;7866;52.280;9.500;2023-05-27T04:34:09;101614.41;;;10.54;75.95
15529;BME280;7866;52.280;9.500;2023-05-27T04:39:12;101622.31;;;10.66;76.53
15529;BME280;7866;52.280;9.500;2023-05-27T04:44:14;101612.06;;;10.90;76.48
15529;BME280;7866;52.280;9.500;2023-05-27T04:49:17;101614.31;;;11.14;76.61
15529;BME280;7866;52.280;9.500;2023-05-27T04:54:20;101610.53;;;12.30;74.31
15529;BME280;7866;52.280;9.500;2023-05-27T04:59:22;101621.53;;;13.18;71.77
15529;BME280;7866;52.280;9.500;2023-05-27T05:04:29;101631.81;;;13.58;69.67
15529;BME280;7866;52.280;9.500;2023-05-27T05:09:32;101639.56;;;14.13;68.65
15529;BME280;7866;52.280;9.500;2023-05-27T05:14:34;101634.41;;;14.36;67.83
15529;BME280;7866;52.280;9.500;2023-05-27T05:19:36;101646.34;;;14.60;66.59
15529;BME280;7866;52.280;9.500;2023-05-27T05:24:39;101646.91;;;14.88;65.94
15529;BME280;7866;52.280;9.500;2023-05-27T05:29:41;101646.44;;;14.84;66.49
15529;BME280;7866;52.280;9.500;2023-05-27T05:34:42;101640.38;;;14.98;65.69
15529;BME280;7866;52.280;9.500;2023-05-27T05:39:46;101646.00;;;14.54;66.80
15529;BME280;7866;52.280;9.500;2023-05-27T05:44:47;101645.16;;;15.29;65.74
15529;BME280;7866;52.280;9.500;2023-05-27T05:49:49;101660.28;;;15.06;65.64
15529;BME280;7866;52.280;9.500;2023-05-27T05:54:52;101645.66;;;15.33;66.03
15529;BME280;7866;52.280;9.500;2023-05-27T05:59:53;101642.59;;;15.11;65.88
15529;BME280;7866;52.280;9.500;2023-05-27T06:04:55;101637.38;;;15.10;65.79
15529;BME280;7866;52.280;9.500;2023-05-27T06:09:58;101646.50;;;15.33;66.23
15529;BME280;7866;52.280;9.500;2023-05-27T06:14:59;101637.19;;;15.27;66.40
15529;BME280;7866;52.280;9.500;2023-05-27T06:20:01;101637.03;;;15.45;66.41
15529;BME280;7866;52.280;9.500;2023-05-27T06:25:05;101631.63;;;15.05;67.19
15529;BME280;7866;52.280;9.500;2023-05-27T06:30:08;101630.63;;;15.79;66.08
15529;BME280;7866;52.280;9.500;2023-05-27T06:35:10;101638.19;;;16.00;64.12
15529;BME280;7866;52.280;9.500;2023-05-27T06:40:13;101633.00;;;15.66;66.11
15529;BME280;7866;52.280;9.500;2023-05-27T06:45:14;101632.78;;;14.94;67.52
15529;BME280;7866;52.280;9.500;2023-05-27T06:50:16;101623.53;;;15.13;68.40
15529;BME280;7866;52.280;9.500;2023-05-27T06:55:21;101621.00;;;15.27;67.74
15529;BME280;7866;52.280;9.500;2023-05-27T07:00:23;101631.31;;;15.81;66.71
15529;BME280;7866;52.280;9.500;2023-05-27T07:05:24;101630.69;;;16.18;65.03
15529;BME280;7866;52.280;9.500;2023-05-27T07:10:27;101629.69;;;16.50;64.55
15529;BME280;7866;52.280;9.500;2023-05-27T07:15:29;101620.97;;;17.03;63.36
15529;BME280;7866;52.280;9.500;2023-05-27T07:20:32;101614.81;;;16.15;65.46
15529;BME280;7866;52.280;9.500;2023-05-27T07:25:34;101614.88;;;16.38;65.20
15529;BME280;7866;52.280;9.500;2023-05-27T07:30:36;101607.31;;;16.73;64.09
15529;BME280;7866;52.280;9.500;2023-05-27T07:35:38;101607.81;;;16.37;64.84
15529;BME280;7866;52.280;9.500;2023-05-27T07:40:42;101602.50;;;16.83;63.23
15529;BME280;7866;52.280;9.500;2023-05-27T07:45:43;101601.66;;;16.83;63.37
15529;BME280;7866;52.280;9.500;2023-05-27T07:50:45;101602.81;;;16.57;62.86
15529;BME280;7866;52.280;9.500;2023-05-27T07:55:48;101596.38;;;17.50;61.90
15529;BME280;7866;52.280;9.500;2023-05-27T08:00:50;101593.28;;;17.38;60.71
15529;BME280;7866;52.280;9.500;2023-05-27T08:05:51;101576.34;;;16.98;62.81
15529;BME280;7866;52.280;9.500;2023-05-27T08:10:54;101582.59;;;17.60;60.53
15529;BME280;7866;52.280;9.500;2023-05-27T08:15:57;101566.28;;;17.30;61.51
15529;BME280;7866;52.280;9.500;2023-05-27T08:20:59;101557.28;;;17.82;59.92
15529;BME280;7866;52.280;9.500;2023-05-27T08:26:01;101553.16;;;17.19;59.09
15529;BME280;7866;52.280;9.500;2023-05-27T08:31:03;101550.25;;;17.06;59.05
15529;BME280;7866;52.280;9.500;2023-05-27T08:36:05;101543.28;;;17.26;57.44
15529;BME280;7866;52.280;9.500;2023-05-27T08:41:08;101552.06;;;16.90;58.15
15529;BME280;7866;52.280;9.500;2023-05-27T08:46:11;101550.91;;;17.60;57.47
15529;BME280;7866;52.280;9.500;2023-05-27T08:51:13;101542.47;;;18.29;54.50
15529;BME280;7866;52.280;9.500;2023-05-27T08:56:18;101539.72;;;17.93;56.38
15529;BME280;7866;52.280;9.500;2023-05-27T09:01:21;101546.75;;;17.87;56.35
15529;BME280;7866;52.280;9.500;2023-05-27T09:06:23;101532.72;;;17.98;56.46
15529;BME280;7866;52.280;9.500;2023-05-27T09:11:27;101519.00;;;18.73;54.61
15529;BME280;7866;52.280;9.500;2023-05-27T09:16:31;101529.16;;;17.68;56.11
15529;BME280;7866;52.280;9.500;2023-05-27T09:21:32;101525.81;;;17.96;55.79
15529;BME280;7866;52.280;9.500;2023-05-27T09:26:35;101524.19;;;18.16;54.57
15529;BME280;7866;52.280;9.500;2023-05-27T09:31:40;101527.78;;;17.87;56.07
15529;BME280;7866;52.280;9.500;2023-05-27T09:36:43;101524.88;;;18.40;55.01
15529;BME280;7866;52.280;9.500;2023-05-27T09:41:52;101516.28;;;18.58;53.63
15529;BME280;7866;52.280;9.500;2023-05-27T09:46:54;101508.84;;;18.24;54.46
15529;BME280;7866;52.280;9.500;2023-05-27T09:51:57;101513.16;;;19.25;54.33
15529;BME280;7866;52.280;9.500;2023-05-27T09:57:02;101512.31;;;18.39;54.92
15529;BME280;7866;52.280;9.500;2023-05-27T10:02:06;101504.91;;;18.84;53.99
15529;BME280;7866;52.280;9.500;2023-05-27T10:07:09;101504.81;;;18.99;53.02
15529;BME280;7866;52.280;9.500;2023-05-27T10:12:12;101491.34;;;19.68;50.94
15529;BME280;7866;52.280;9.500;2023-05-27T10:17:15;101493.09;;;18.98;52.61
15529;BME280;7866;52.280;9.500;2023-05-27T10:22:17;101492.19;;;19.40;52.12
15529;BME280;7866;52.280;9.500;2023-05-27T10:27:22;101479.88;;;19.44;51.36
15529;BME280;7866;52.280;9.500;2023-05-27T10:32:24;101476.63;;;19.28;51.56
15529;BME280;7866;52.280;9.500;2023-05-27T10:37:32;101467.56;;;19.90;49.82
15529;BME280;7866;52.280;9.500;2023-05-27T10:42:36;101468.66;;;19.61;49.76
15529;BME280;7866;52.280;9.500;2023-05-27T10:47:38;101456.22;;;19.73;49.03
15529;BME280;7866;52.280;9.500;2023-05-27T10:52:41;101460.28;;;19.56;50.32
15529;BME280;7866;52.280;9.500;2023-05-27T10:57:44;101441.75;;;20.21;48.79
15529;BME280;7866;52.280;9.500;2023-05-27T11:02:47;101434.78;;;19.91;50.07
15529;BME280;7866;52.280;9.500;2023-05-27T11:07:48;101440.53;;;20.36;48.71
15529;BME280;7866;52.280;9.500;2023-05-27T11:12:51;101425.38;;;20.01;47.64
15529;BME280;7866;52.280;9.500;2023-05-27T11:18:00;101416.16;;;20.02;47.63
15529;BME280;7866;52.280;9.500;2023-05-27T11:23:01;101426.81;;;19.97;49.01
15529;BME280;7866;52.280;9.500;2023-05-27T11:28:04;101415.75;;;20.05;47.08
15529;BME280;7866;52.280;9.500;2023-05-27T11:33:06;101413.56;;;20.61;46.37
15529;BME280;7866;52.280;9.500;2023-05-27T11:38:16;101411.00;;;20.47;46.48
15529;BME280;7866;52.280;9.500;2023-05-27T11:43:19;101402.91;;;20.60;46.46
15529;BME280;7866;52.280;9.500;2023-05-27T11:48:21;101392.41;;;20.50;47.00
15529;BME280;7866;52.280;9.500;2023-05-27T11:53:26;101390.34;;;20.52;46.81
15529;BME280;7866;52.280;9.500;2023-05-27T11:58:30;101383.56;;;20.22;46.93
15529;BME280;7866;52.280;9.500;2023-05-27T12:03:33;101373.50;;;21.15;45.28
15529;BME280;7866;52.280;9.500;2023-05-27T12:08:35;101373.81;;;21.58;44.92
15529;BME280;7866;52.280;9.500;2023-05-27T12:13:38;101364.25;;;21.36;44.58
15529;BME280;7866;52.280;9.500;2023-05-27T12:18:40;101357.53;;;21.25;45.54
15529;BME280;7866;52.280;9.500;2023-05-27T12:23:42;101351.13;;;21.58;44.70
15529;BME280;7866;52.280;9.500;2023-05-27T12:28:45;101341.59;;;22.44;43.72
15529;BME280;7866;52.280;9.500;2023-05-27T12:33:46;101329.00;;;22.11;44.57
15529;BME280;7866;52.280;9.500;2023-05-27T12:38:48;101327.06;;;22.68;43.46
15529;BME280;7866;52.280;9.500;2023-05-27T12:43:51;101321.09;;;22.34;44.20
15529;BME280;7866;52.280;9.500;2023-05-27T12:48:53;101315.56;;;22.41;43.89
15529;BME280;7866;52.280;9.500;2023-05-27T12:53:54;101312.03;;;23.02;43.38
15529;BME280;7866;52.280;9.500;2023-05-27T12:58:58;101296.72;;;22.58;44.50
15529;BME280;7866;52.280;9.500;2023-05-27T13:03:59;101301.28;;;22.64;44.32
15529;BME280;7866;52.280;9.500;2023-05-27T13:09:01;101293.47;;;22.24;44.64
15529;BME280;7866;52.280;9.500;2023-05-27T13:14:04;101275.16;;;22.50;44.34
15529;BME280;7866;52.280;9.500;2023-05-27T13:19:06;101280.94;;;22.10;43.44
15529;BME280;7866;52.280;9.500;2023-05-27T13:24:07;101273.13;;;21.88;43.60
15529;BME280;7866;52.280;9.500;2023-05-27T13:29:10;101270.59;;;22.44;42.93
15529;BME280;7866;52.280;9.500;2023-05-27T13:34:12;101264.53;;;22.42;42.85
15529;BME280;7866;52.280;9.500;2023-05-27T13:39:14;101243.81;;;22.09;43.08
15529;BME280;7866;52.280;9.500;2023-05-27T13:44:17;101238.91;;;21.93;43.01
15529;BME280;7866;52.280;9.500;2023-05-27T13:49:18;101237.38;;;22.03;42.72
15529;BME280;7866;52.280;9.500;2023-05-27T13:54:20;101234.84;;;22.02;42.31
15529;BME280;7866;52.280;9.500;2023-05-27T13:59:23;101222.78;;;22.59;41.19
15529;BME280;7866;52.280;9.500;2023-05-27T14:04:24;101210.34;;;21.70;41.75
15529;BME280;7866;52.280;9.500;2023-05-27T14:09:27;101214.88;;;21.83;41.61
15529;BME280;7866;52.280;9.500;2023-05-27T14:14:30;101206.97;;;22.61;40.92
15529;BME280;7866;52.280;9.500;2023-05-27T14:19:32;101205.31;;;21.99;41.97
15529;BME280;7866;52.280;9.500;2023-05-27T14:24:33;101182.34;;;22.68;40.92
15529;BME280;7866;52.280;9.500;2023-05-27T14:29:37;101172.56;;;22.24;40.76
15529;BME280;7866;52.280;9.500;2023-05-27T14:34:39;101171.72;;;22.42;41.63
15529;BME280;7866;52.280;9.500;2023-05-27T14:39:40;101169.81;;;22.24;41.25
15529;BME280;7866;52.280;9.500;2023-05-27T14:44:43;101171.56;;;21.68;41.53
15529;BME280;7866;52.280;9.500;2023-05-27T14:49:45;101164.50;;;22.29;40.57
15529;BME280;7866;52.280;9.500;2023-05-27T14:54:46;101156.78;;;22.26;41.60
15529;BME280;7866;52.280;9.500;2023-05-27T14:59:49;101151.63;;;22.18;41.18
15529;BME280;7866;52.280;9.500;2023-05-27T15:04:51;101147.84;;;21.94;41.79
15529;BME280;7866;52.280;9.500;2023-05-27T15:09:53;101146.63;;;21.64;41.30
15529;BME280;7866;52.280;9.500;2023-05-27T15:14:56;101133.19;;;22.50;40.28
15529;BME280;7866;52.280;9.500;2023-05-27T15:19:59;101135.50;;;21.91;41.70
15529;BME280;7866;52.280;9.500;2023-05-27T15:25:01;101139.25;;;21.90;41.11
15529;BME280;7866;52.280;9.500;2023-05-27T15:30:05;101125.75;;;21.77;41.23
15529;BME280;7866;52.280;9.500;2023-05-27T15:35:08;101120.72;;;22.24;40.88
15529;BME280;7866;52.280;9.500;2023-05-27T15:40:11;101118.97;;;21.86;41.85
15529;BME280;7866;52.280;9.500;2023-05-27T15:45:15;101113.63;;;22.53;41.30
15529;BME280;7866;52.280;9.500;2023-05-27T15:50:17;101113.91;;;22.08;41.37
15529;BME280;7866;52.280;9.500;2023-05-27T15:55:18;101095.88;;;21.88;41.00
15529;BME280;7866;52.280;9.500;2023-05-27T16:00:21;101105.47;;;22.34;41.27
15529;BME280;7866;52.280;9.500;2023-05-27T16:05:23;101097.78;;;22.06;41.34
15529;BME280;7866;52.280;9.500;2023-05-27T16:10:24;101099.56;;;21.94;41.92
15529;BME280;7866;52.280;9.500;2023-05-27T16:15:27;101102.34;;;21.69;41.49
15529;BME280;7866;52.280;9.500;2023-05-27T16:20:29;101085.66;;;21.34;42.38
15529;BME280;7866;52.280;9.500;2023-05-27T16:25:31;101081.53;;;21.50;42.41
15529;BME280;7866;52.280;9.500;2023-05-27T16:30:34;101080.66;;;21.56;43.02
15529;BME280;7866;52.280;9.500;2023-05-27T16:35:36;101067.63;;;21.58;43.20
15529;BME280;7866;52.280;9.500;2023-05-27T16:40:38;101074.28;;;21.12;43.90
15529;BME280;7866;52.280;9.500;2023-05-27T16:45:41;101057.63;;;21.27;43.81
15529;BME280;7866;52.280;9.500;2023-05-27T16:50:42;101062.59;;;21.05;44.13
15529;BME280;7866;52.280;9.500;2023-05-27T16:55:44;101060.38;;;20.95;43.69
15529;BME280;7866;52.280;9.500;2023-05-27T17:00:56;101055.59;;;20.90;43.87
15529;BME280;7866;52.280;9.500;2023-05-27T17:05:58;101052.63;;;20.92;44.21
15529;BME280;7866;52.280;9.500;2023-05-27T17:11:00;101048.94;;;20.80;44.63
15529;BME280;7866;52.280;9.500;2023-05-27T17:16:03;101052.25;;;20.88;44.38
15529;BME280;7866;52.280;9.500;2023-05-27T17:21:05;101041.44;;;20.75;44.25
15529;BME280;7866;52.280;9.500;2023-05-27T17:26:06;101037.34;;;20.59;44.78
15529;BME280;7866;52.280;9.500;2023-05-27T17:31:09;101028.59;;;20.51;44.63
15529;BME280;7866;52.280;9.500;2023-05-27T17:36:11;101030.88;;;20.54;45.11
15529;BME280;7866;52.280;9.500;2023-05-27T17:41:12;101030.91;;;20.40;45.28
15529;BME280;7866;52.280;9.500;2023-05-27T17:46:15;101033.47;;;20.35;45.58
15529;BME280;7866;52.280;9.500;2023-05-27T17:51:17;101023.84;;;20.26;45.85
15529;BME280;7866;52.280;9.500;2023-05-27T17:56:19;101014.59;;;19.96;48.05
15529;BME280;7866;52.280;9.500;2023-05-27T18:01:21;101014.47;;;19.64;49.55
15529;BME280;7866;52.280;9.500;2023-05-27T18:06:23;101019.69;;;19.26;51.46
15529;BME280;7866;52.280;9.500;2023-05-27T18:11:25;101020.09;;;19.03;52.39
15529;BME280;7866;52.280;9.500;2023-05-27T18:16:28;101018.88;;;18.92;52.78
15529;BME280;7866;52.280;9.500;2023-05-27T18:21:29;101018.63;;;18.80;53.35
15529;BME280;7866;52.280;9.500;2023-05-27T18:26:31;101026.66;;;18.47;54.65
15529;BME280;7866;52.280;9.500;2023-05-27T18:31:34;101025.34;;;18.30;55.62
15529;BME280;7866;52.280;9.500;2023-05-27T18:36:35;101020.09;;;18.21;55.57
15529;BME280;7866;52.280;9.500;2023-05-27T18:41:37;101017.75;;;18.05;56.14
15529;BME280;7866;52.280;9.500;2023-05-27T18:46:40;101015.59;;;17.94;56.38
15529;BME280;7866;52.280;9.500;2023-05-27T18:51:42;101013.56;;;17.68;57.03
15529;BME280;7866;52.280;9.500;2023-05-27T18:56:44;101018.16;;;17.39;58.48
15529;BME280;7866;52.280;9.500;2023-05-27T19:01:47;101015.84;;;17.08;59.66
15529;BME280;7866;52.280;9.500;2023-05-27T19:06:49;101010.72;;;16.92;60.16
15529;BME280;7866;52.280;9.500;2023-05-27T19:11:51;101018.22;;;16.75;59.71
15529;BME280;7866;52.280;9.500;2023-05-27T19:16:54;101020.16;;;16.60;60.11
15529;BME280;7866;52.280;9.500;2023-05-27T19:21:55;101011.50;;;16.49;60.23
15529;BME280;7866;52.280;9.500;2023-05-27T19:26:57;101012.00;;;16.23;61.46
15529;BME280;7866;52.280;9.500;2023-05-27T19:32:00;101002.25;;;16.08;62.26
15529;BME280;7866;52.280;9.500;2023-05-27T19:37:02;101004.63;;;15.96;62.35
15529;BME280;7866;52.280;9.500;2023-05-27T19:42:04;101000.81;;;15.90;61.68
15529;BME280;7866;52.280;9.500;2023-05-27T19:47:07;101005.75;;;15.72;62.31
15529;BME280;7866;52.280;9.500;2023-05-27T19:52:09;101003.78;;;15.66;62.52
15529;BME280;7866;52.280;9.500;2023-05-27T19:57:11;100995.84;;;15.49;63.09
15529;BME280;7866;52.280;9.500;2023-05-27T20:02:14;100993.88;;;15.43;63.11
15529;BME280;7866;52.280;9.500;2023-05-27T20:07:15;101001.69;;;15.38;62.88
15529;BME280;7866;52.280;9.500;2023-05-27T20:12:35;100990.22;;;15.21;63.79
15529;BME280;7866;52.280;9.500;2023-05-27T20:17:38;100993.84;;;15.14;63.82
15529;BME280;7866;52.280;9.500;2023-05-27T20:22:40;100992.53;;;15.10;63.56
15529;BME280;7866;52.280;9.500;2023-05-27T20:27:41;100990.31;;;15.13;63.07
15529;BME280;7866;52.280;9.500;2023-05-27T20:32:45;100988.81;;;15.11;63.00
15529;BME280;7866;52.280;9.500;2023-05-27T20:37:47;100987.00;;;15.03;63.09
15529;BME280;7866;52.280;9.500;2023-05-27T20:42:49;100988.25;;;15.00;63.02
15529;BME280;7866;52.280;9.500;2023-05-27T20:47:52;100974.78;;;14.77;64.26
15529;BME280;7866;52.280;9.500;2023-05-27T20:52:54;100981.63;;;14.80;64.34
15529;BME280;7866;52.280;9.500;2023-05-27T20:57:55;100969.66;;;14.83;63.72
15529;BME280;7866;52.280;9.500;2023-05-27T21:02:58;100965.72;;;14.70;63.62
15529;BME280;7866;52.280;9.500;2023-05-27T21:08:00;100954.34;;;14.60;64.66
15529;BME280;7866;52.280;9.500;2023-05-27T21:13:02;100965.50;;;14.57;64.72
15529;BME280;7866;52.280;9.500;2023-05-27T21:18:05;100959.31;;;14.48;64.83
15529;BME280;7866;52.280;9.500;2023-05-27T21:23:06;100961.13;;;14.48;64.67
15529;BME280;7866;52.280;9.500;2023-05-27T21:28:08;100949.41;;;14.41;65.30
15529;BME280;7866;52.280;9.500;2023-05-27T21:33:11;100950.13;;;14.35;65.48
15529;BME280;7866;52.280;9.500;2023-05-27T21:38:13;100947.00;;;14.23;66.04
15529;BME280;7866;52.280;9.500;2023-05-27T21:43:16;100953.09;;;14.17;66.32
15529;BME280;7866;52.280;9.500;2023-05-27T21:48:19;100948.72;;;14.16;66.23
15529;BME280;7866;52.280;9.500;2023-05-27T21:53:21;100957.69;;;14.08;66.29
15529;BME280;7866;52.280;9.500;2023-05-27T21:58:23;100954.03;;;14.01;66.79
15529;BME280;7866;52.280;9.500;2023-05-27T22:03:27;100948.66;;;14.01;66.62
15529;BME280;7866;52.280;9.500;2023-05-27T22:08:29;100945.84;;;13.86;66.77
15529;BME280;7866;52.280;9.500;2023-05-27T22:13:31;100942.09;;;13.95;66.58
15529;BME280;7866;52.280;9.500;2023-05-27T22:18:34;100928.19;;;13.84;66.81
15529;BME280;7866;52.280;9.500;2023-05-27T22:23:36;100918.34;;;13.68;66.98
15529;BME280;7866;52.280;9.500;2023-05-27T22:28:37;100925.91;;;13.72;66.65
15529;BME280;7866;52.280;9.500;2023-05-27T22:33:40;100923.06;;;13.66;66.18
15529;BME280;7866;52.280;9.500;2023-05-27T22:38:42;100914.50;;;13.62;66.26
15529;BME280;7866;52.280;9.500;2023-05-27T22:43:43;100912.88;;;13.53;65.88
15529;BME280;7866;52.280;9.500;2023-05-27T22:48:46;100917.06;;;13.47;65.85
15529;BME280;7866;52.280;9.500;2023-05-27T22:53:48;100910.38;;;13.43;66.40
15529;BME280;7866;52.280;9.500;2023-05-27T22:58:50;100903.00;;;13.37;66.61
15529;BME280;7866;52.280;9.500;2023-05-27T23:03:53;100901.69;;;13.25;66.91
15529;BME280;7866;52.280;9.500;2023-05-27T23:08:54;100897.66;;;13.21;67.15
15529;BME280;7866;52.280;9.500;2023-05-27T23:13:56;100900.34;;;13.29;66.80
15529;BME280;7866;52.280;9.500;2023-05-27T23:18:59;100896.28;;;13.33;66.53
15529;BME280;7866;52.280;9.500;2023-05-27T23:24:01;100893.25;;;13.28;67.00
15529;BME280;7866;52.280;9.500;2023-05-27T23:29:03;100890.06;;;13.24;67.31
15529;BME280;7866;52.280;9.500;2023-05-27T23:34:06;100876.13;;;13.21;67.33
15529;BME280;7866;52.280;9.500;2023-05-27T23:39:07;100873.97;;;13.08;68.18
15529;BME280;7866;52.280;9.500;2023-05-27T23:44:09;100882.03;;;13.08;68.18
15529;BME280;7866;52.280;9.500;2023-05-27T23:49:12;100880.91;;;12.94;68.54
15529;BME280;7866;52.280;9.500;2023-05-27T23:54:14;100890.94;;;13.00;68.67
15529;BME280;7866;52.280;9.500;2023-05-27T23:59:15;100888.25;;;13.00;68.73
